sensor_id;sensor_type;location;lat;lon;timestamp;temperature;humidity
5711;DHT22;61291;52.524;13.422;2023-04-22T00:00:09;11.20;89.40
5711;DHT22;61291;52.524;13.422;2023-04-22T00:02:35;11.00;89.20
5711;DHT22;61291;52.524;13.422;2023-04-22T00:05:02;11.00;89.50
5711;DHT22;61291;52.524;13.422;2023-04-22T00:07:27;11.00;89.50
5711;DHT22;61291;52.524;13.422;2023-04-22T00:09:53;11.00;89.70
5711;DHT22;61291;52.524;13.422;2023-04-22T00:12:18;10.90;89.80
5711;DHT22;61291;52.524;13.422;2023-04-22T00:14:44;10.80;89.60
5711;DHT22;61291;52.524;13.422;2023-04-22T00:17:09;10.80;89.70
5711;DHT22;61291;52.524;13.422;2023-04-22T00:19:35;10.80;90.00
5711;DHT22;61291;52.524;13.422;2023-04-22T00:22:01;10.80;90.00
5711;DHT22;61291;52.524;13.422;2023-04-22T00:24:27;10.70;89.90
5711;DHT22;61291;52.524;13.422;2023-04-22T00:26:53;10.70;90.10
5711;DHT22;61291;52.524;13.422;2023-04-22T00:29:18;10.60;90.10
5711;DHT22;61291;52.524;13.422;2023-04-22T00:31:44;10.60;90.20
5711;DHT22;61291;52.524;13.422;2023-04-22T00:34:09;10.60;90.20
5711;DHT22;61291;52.524;13.422;2023-04-22T00:36:35;10.60;90.20
5711;DHT22;61291;52.524;13.422;2023-04-22T00:39:00;10.60;90.20
5711;DHT22;61291;52.524;13.422;2023-04-22T00:41:26;10.50;90.20
5711;DHT22;61291;52.524;13.422;2023-04-22T00:43:52;10.50;90.50
5711;DHT22;61291;52.524;13.422;2023-04-22T00:46:18;10.50;90.40
5711;DHT22;61291;52.524;13.422;2023-04-22T00:48:45;10.50;90.40
5711;DHT22;61291;52.524;13.422;2023-04-22T00:51:10;10.50;90.40
5711;DHT22;61291;52.524;13.422;2023-04-22T00:53:36;10.40;90.50
5711;DHT22;61291;52.524;13.422;2023-04-22T00:56:01;10.40;90.50
5711;DHT22;61291;52.524;13.422;2023-04-22T00:58:28;10.40;90.50
5711;DHT22;61291;52.524;13.422;2023-04-22T01:00:54;10.50;90.50
5711;DHT22;61291;52.524;13.422;2023-04-22T01:03:20;10.50;90.60
5711;DHT22;61291;52.524;13.422;2023-04-22T01:05:47;10.50;90.80
5711;DHT22;61291;52.524;13.422;2023-04-22T01:08:13;10.50;90.70
5711;DHT22;61291;52.524;13.422;2023-04-22T01:10:40;10.40;90.70
5711;DHT22;61291;52.524;13.422;2023-04-22T01:13:05;10.50;90.80
5711;DHT22;61291;52.524;13.422;2023-04-22T01:15:31;10.50;91.00
5711;DHT22;61291;52.524;13.422;2023-04-22T01:17:57;10.50;90.80
5711;DHT22;61291;52.524;13.422;2023-04-22T01:20:23;10.50;90.80
5711;DHT22;61291;52.524;13.422;2023-04-22T01:22:53;10.50;90.80
5711;DHT22;61291;52.524;13.422;2023-04-22T01:25:19;10.40;90.70
5711;DHT22;61291;52.524;13.422;2023-04-22T01:27:45;10.40;90.80
5711;DHT22;61291;52.524;13.422;2023-04-22T01:30:11;10.30;90.70
5711;DHT22;61291;52.524;13.422;2023-04-22T01:32:38;10.30;90.80
5711;DHT22;61291;52.524;13.422;2023-04-22T01:35:04;10.20;90.90
5711;DHT22;61291;52.524;13.422;2023-04-22T01:37:30;10.20;90.90
5711;DHT22;61291;52.524;13.422;2023-04-22T01:39:57;10.30;91.00
5711;DHT22;61291;52.524;13.422;2023-04-22T01:42:23;10.20;91.00
5711;DHT22;61291;52.524;13.422;2023-04-22T01:44:49;10.10;91.00
5711;DHT22;61291;52.524;13.422;2023-04-22T01:47:14;10.10;91.10
5711;DHT22;61291;52.524;13.422;2023-04-22T01:49:40;10.00;91.10
5711;DHT22;61291;52.524;13.422;2023-04-22T01:52:05;10.00;91.30
5711;DHT22;61291;52.524;13.422;2023-04-22T01:54:31;10.00;91.30
5711;DHT22;61291;52.524;13.422;2023-04-22T01:56:57;10.00;91.40
5711;DHT22;61291;52.524;13.422;2023-04-22T01:59:23;10.00;91.40
5711;DHT22;61291;52.524;13.422;2023-04-22T02:01:48;10.10;91.40
5711;DHT22;61291;52.524;13.422;2023-04-22T02:04:14;10.00;91.30
5711;DHT22;61291;52.524;13.422;2023-04-22T02:06:40;10.00;91.30
5711;DHT22;61291;52.524;13.422;2023-04-22T02:09:05;9.90;92.00
5711;DHT22;61291;52.524;13.422;2023-04-22T02:11:31;9.80;92.00
5711;DHT22;61291;52.524;13.422;2023-04-22T02:13:57;9.80;92.10
5711;DHT22;61291;52.524;13.422;2023-04-22T02:16:22;9.70;92.20
5711;DHT22;61291;52.524;13.422;2023-04-22T02:18:48;9.70;92.20
5711;DHT22;61291;52.524;13.422;2023-04-22T02:21:13;9.70;92.30
5711;DHT22;61291;52.524;13.422;2023-04-22T02:23:39;9.70;92.30
5711;DHT22;61291;52.524;13.422;2023-04-22T02:26:06;9.70;92.30
5711;DHT22;61291;52.524;13.422;2023-04-22T02:28:32;9.90;92.40
5711;DHT22;61291;52.524;13.422;2023-04-22T02:30:58;10.00;91.90
5711;DHT22;61291;52.524;13.422;2023-04-22T02:33:23;10.10;91.70
5711;DHT22;61291;52.524;13.422;2023-04-22T02:35:49;10.20;91.60
5711;DHT22;61291;52.524;13.422;2023-04-22T02:38:14;10.20;91.50
5711;DHT22;61291;52.524;13.422;2023-04-22T02:40:40;10.20;91.50
5711;DHT22;61291;52.524;13.422;2023-04-22T02:43:06;10.20;91.50
5711;DHT22;61291;52.524;13.422;2023-04-22T02:45:31;10.20;91.50
5711;DHT22;61291;52.524;13.422;2023-04-22T02:47:57;10.10;91.50
5711;DHT22;61291;52.524;13.422;2023-04-22T02:50:22;10.10;91.60
5711;DHT22;61291;52.524;13.422;2023-04-22T02:52:48;10.00;91.60
5711;DHT22;61291;52.524;13.422;2023-04-22T02:55:13;9.90;92.10
5711;DHT22;61291;52.524;13.422;2023-04-22T02:57:39;9.90;92.30
5711;DHT22;61291;52.524;13.422;2023-04-22T03:00:05;9.80;92.50
5711;DHT22;61291;52.524;13.422;2023-04-22T03:02:32;9.90;92.40
5711;DHT22;61291;52.524;13.422;2023-04-22T03:04:57;10.00;91.70
5711;DHT22;61291;52.524;13.422;2023-04-22T03:07:24;9.90;92.20
5711;DHT22;61291;52.524;13.422;2023-04-22T03:09:49;9.90;92.20
5711;DHT22;61291;52.524;13.422;2023-04-22T03:12:14;9.80;92.20
5711;DHT22;61291;52.524;13.422;2023-04-22T03:14:40;9.80;92.30
5711;DHT22;61291;52.524;13.422;2023-04-22T03:17:05;9.70;92.20
5711;DHT22;61291;52.524;13.422;2023-04-22T03:19:31;9.80;92.30
5711;DHT22;61291;52.524;13.422;2023-04-22T03:21:56;9.80;92.20
5711;DHT22;61291;52.524;13.422;2023-04-22T03:24:23;9.80;92.20
5711;DHT22;61291;52.524;13.422;2023-04-22T03:26:48;9.80;92.30
5711;DHT22;61291;52.524;13.422;2023-04-22T03:29:14;9.70;92.30
5711;DHT22;61291;52.524;13.422;2023-04-22T03:31:39;9.70;92.40
5711;DHT22;61291;52.524;13.422;2023-04-22T03:34:05;9.60;92.30
5711;DHT22;61291;52.524;13.422;2023-04-22T03:36:30;9.60;92.40
5711;DHT22;61291;52.524;13.422;2023-04-22T03:38:56;9.60;92.80
5711;DHT22;61291;52.524;13.422;2023-04-22T03:41:21;9.60;92.70
5711;DHT22;61291;52.524;13.422;2023-04-22T03:43:47;9.70;92.70
5711;DHT22;61291;52.524;13.422;2023-04-22T03:46:13;9.60;92.70
5711;DHT22;61291;52.524;13.422;2023-04-22T03:48:38;9.60;92.70
5711;DHT22;61291;52.524;13.422;2023-04-22T03:51:04;9.60;92.70
5711;DHT22;61291;52.524;13.422;2023-04-22T03:53:29;9.60;92.80
5711;DHT22;61291;52.524;13.422;2023-04-22T03:55:55;9.60;92.90
5711;DHT22;61291;52.524;13.422;2023-04-22T03:58:20;9.50;92.90
5711;DHT22;61291;52.524;13.422;2023-04-22T04:00:46;9.40;92.90
5711;DHT22;61291;52.524;13.422;2023-04-22T04:03:12;9.50;93.10
5711;DHT22;61291;52.524;13.422;2023-04-22T04:05:37;9.50;93.20
5711;DHT22;61291;52.524;13.422;2023-04-22T04:08:03;9.50;93.20
5711;DHT22;61291;52.524;13.422;2023-04-22T04:10:28;9.60;93.20
5711;DHT22;61291;52.524;13.422;2023-04-22T04:12:54;9.60;93.20
5711;DHT22;61291;52.524;13.422;2023-04-22T04:15:19;9.60;93.20
5711;DHT22;61291;52.524;13.422;2023-04-22T04:17:46;9.70;93.20
5711;DHT22;61291;52.524;13.422;2023-04-22T04:20:12;9.70;93.20
5711;DHT22;61291;52.524;13.422;2023-04-22T04:22:38;9.80;93.20
5711;DHT22;61291;52.524;13.422;2023-04-22T04:25:04;9.70;93.20
5711;DHT22;61291;52.524;13.422;2023-04-22T04:27:29;9.80;93.30
5711;DHT22;61291;52.524;13.422;2023-04-22T04:29:55;9.80;93.30
5711;DHT22;61291;52.524;13.422;2023-04-22T04:32:21;9.90;93.20
5711;DHT22;61291;52.524;13.422;2023-04-22T04:34:48;10.00;92.60
5711;DHT22;61291;52.524;13.422;2023-04-22T04:37:13;10.10;92.60
5711;DHT22;61291;52.524;13.422;2023-04-22T04:39:39;10.10;92.60
5711;DHT22;61291;52.524;13.422;2023-04-22T04:42:06;10.10;92.60
5711;DHT22;61291;52.524;13.422;2023-04-22T04:44:31;10.20;92.60
5711;DHT22;61291;52.524;13.422;2023-04-22T04:46:58;10.20;92.60
5711;DHT22;61291;52.524;13.422;2023-04-22T04:49:23;10.30;92.60
5711;DHT22;61291;52.524;13.422;2023-04-22T04:51:48;10.40;92.50
5711;DHT22;61291;52.524;13.422;2023-04-22T04:54:14;10.70;92.50
5711;DHT22;61291;52.524;13.422;2023-04-22T04:56:40;11.10;92.50
5711;DHT22;61291;52.524;13.422;2023-04-22T04:59:06;11.60;92.40
5711;DHT22;61291;52.524;13.422;2023-04-22T05:01:31;11.90;92.30
5711;DHT22;61291;52.524;13.422;2023-04-22T05:03:57;12.30;91.60
5711;DHT22;61291;52.524;13.422;2023-04-22T05:06:22;12.60;91.50
5711;DHT22;61291;52.524;13.422;2023-04-22T05:08:48;13.00;91.40
5711;DHT22;61291;52.524;13.422;2023-04-22T05:11:13;13.30;91.20
5711;DHT22;61291;52.524;13.422;2023-04-22T05:13:39;13.30;91.00
5711;DHT22;61291;52.524;13.422;2023-04-22T05:16:04;13.70;91.10
5711;DHT22;61291;52.524;13.422;2023-04-22T05:18:30;14.00;90.80
5711;DHT22;61291;52.524;13.422;2023-04-22T05:20:55;14.30;90.70
5711;DHT22;61291;52.524;13.422;2023-04-22T05:23:23;14.50;90.40
5711;DHT22;61291;52.524;13.422;2023-04-22T05:25:49;14.90;90.20
5711;DHT22;61291;52.524;13.422;2023-04-22T05:28:14;15.20;89.80
5711;DHT22;61291;52.524;13.422;2023-04-22T05:30:40;15.60;89.60
5711;DHT22;61291;52.524;13.422;2023-04-22T05:33:05;16.00;88.90
5711;DHT22;61291;52.524;13.422;2023-04-22T05:35:33;16.50;87.80
5711;DHT22;61291;52.524;13.422;2023-04-22T05:37:58;16.70;86.90
5711;DHT22;61291;52.524;13.422;2023-04-22T05:40:24;17.30;86.50
5711;DHT22;61291;52.524;13.422;2023-04-22T05:42:49;17.90;85.90
5711;DHT22;61291;52.524;13.422;2023-04-22T05:45:15;18.30;85.40
5711;DHT22;61291;52.524;13.422;2023-04-22T05:47:40;18.10;84.10
5711;DHT22;61291;52.524;13.422;2023-04-22T05:50:06;17.90;83.90
5711;DHT22;61291;52.524;13.422;2023-04-22T05:52:32;18.20;83.80
5711;DHT22;61291;52.524;13.422;2023-04-22T05:54:57;18.60;83.10
5711;DHT22;61291;52.524;13.422;2023-04-22T05:57:23;18.70;82.50
5711;DHT22;61291;52.524;13.422;2023-04-22T05:59:48;18.90;82.30
5711;DHT22;61291;52.524;13.422;2023-04-22T06:02:13;19.70;81.80
5711;DHT22;61291;52.524;13.422;2023-04-22T06:04:40;20.50;81.30
5711;DHT22;61291;52.524;13.422;2023-04-22T06:07:06;21.90;80.70
5711;DHT22;61291;52.524;13.422;2023-04-22T06:09:31;22.70;79.60
5711;DHT22;61291;52.524;13.422;2023-04-22T06:11:57;22.80;78.50
5711;DHT22;61291;52.524;13.422;2023-04-22T06:14:22;22.10;75.20
5711;DHT22;61291;52.524;13.422;2023-04-22T06:16:48;22.50;76.40
5711;DHT22;61291;52.524;13.422;2023-04-22T06:19:15;22.90;76.20
5711;DHT22;61291;52.524;13.422;2023-04-22T06:21:40;23.20;76.10
5711;DHT22;61291;52.524;13.422;2023-04-22T06:24:07;23.60;75.50
5711;DHT22;61291;52.524;13.422;2023-04-22T06:26:35;23.40;74.50
5711;DHT22;61291;52.524;13.422;2023-04-22T06:29:01;22.90;74.10
5711;DHT22;61291;52.524;13.422;2023-04-22T06:31:32;23.00;74.10
5711;DHT22;61291;52.524;13.422;2023-04-22T06:33:58;23.30;74.20
5711;DHT22;61291;52.524;13.422;2023-04-22T06:36:24;23.70;73.90
5711;DHT22;61291;52.524;13.422;2023-04-22T06:38:50;23.90;73.90
5711;DHT22;61291;52.524;13.422;2023-04-22T06:41:16;23.90;73.30
5711;DHT22;61291;52.524;13.422;2023-04-22T06:43:41;24.30;73.00
5711;DHT22;61291;52.524;13.422;2023-04-22T06:46:07;24.70;72.40
5711;DHT22;61291;52.524;13.422;2023-04-22T06:48:32;24.90;71.70
5711;DHT22;61291;52.524;13.422;2023-04-22T06:50:58;25.30;71.30
5711;DHT22;61291;52.524;13.422;2023-04-22T06:53:23;25.50;71.10
5711;DHT22;61291;52.524;13.422;2023-04-22T06:55:49;25.80;71.10
5711;DHT22;61291;52.524;13.422;2023-04-22T06:58:15;26.10;70.20
5711;DHT22;61291;52.524;13.422;2023-04-22T07:00:40;26.20;69.60
5711;DHT22;61291;52.524;13.422;2023-04-22T07:03:06;26.20;69.40
5711;DHT22;61291;52.524;13.422;2023-04-22T07:05:31;26.20;69.40
5711;DHT22;61291;52.524;13.422;2023-04-22T07:07:57;26.10;69.30
5711;DHT22;61291;52.524;13.422;2023-04-22T07:10:23;25.90;68.80
5711;DHT22;61291;52.524;13.422;2023-04-22T07:12:48;25.80;68.70
5711;DHT22;61291;52.524;13.422;2023-04-22T07:15:14;25.80;68.80
5711;DHT22;61291;52.524;13.422;2023-04-22T07:17:39;25.60;68.70
5711;DHT22;61291;52.524;13.422;2023-04-22T07:20:05;25.60;68.70
5711;DHT22;61291;52.524;13.422;2023-04-22T07:22:31;25.60;68.60
5711;DHT22;61291;52.524;13.422;2023-04-22T07:24:56;25.30;68.50
5711;DHT22;61291;52.524;13.422;2023-04-22T07:27:22;25.40;68.20
5711;DHT22;61291;52.524;13.422;2023-04-22T07:29:47;25.40;68.50
5711;DHT22;61291;52.524;13.422;2023-04-22T07:32:13;25.20;68.40
5711;DHT22;61291;52.524;13.422;2023-04-22T07:34:38;25.10;68.60
5711;DHT22;61291;52.524;13.422;2023-04-22T07:37:04;24.90;68.50
5711;DHT22;61291;52.524;13.422;2023-04-22T07:39:31;24.60;69.10
5711;DHT22;61291;52.524;13.422;2023-04-22T07:41:57;24.30;68.40
5711;DHT22;61291;52.524;13.422;2023-04-22T07:44:22;24.10;68.30
5711;DHT22;61291;52.524;13.422;2023-04-22T07:46:48;23.80;68.30
5711;DHT22;61291;52.524;13.422;2023-04-22T07:49:14;22.90;68.10
5711;DHT22;61291;52.524;13.422;2023-04-22T07:51:42;22.10;68.40
5711;DHT22;61291;52.524;13.422;2023-04-22T07:54:08;21.40;68.90
5711;DHT22;61291;52.524;13.422;2023-04-22T07:56:33;20.90;69.30
5711;DHT22;61291;52.524;13.422;2023-04-22T07:58:59;20.50;69.90
5711;DHT22;61291;52.524;13.422;2023-04-22T08:01:24;20.20;70.20
5711;DHT22;61291;52.524;13.422;2023-04-22T08:03:50;19.90;70.60
5711;DHT22;61291;52.524;13.422;2023-04-22T08:06:16;19.70;71.30
5711;DHT22;61291;52.524;13.422;2023-04-22T08:08:41;19.40;71.60
5711;DHT22;61291;52.524;13.422;2023-04-22T08:11:07;19.20;71.90
5711;DHT22;61291;52.524;13.422;2023-04-22T08:13:32;19.10;72.80
5711;DHT22;61291;52.524;13.422;2023-04-22T08:15:59;19.10;73.00
5711;DHT22;61291;52.524;13.422;2023-04-22T08:18:27;19.10;73.10
5711;DHT22;61291;52.524;13.422;2023-04-22T08:20:53;19.10;73.20
5711;DHT22;61291;52.524;13.422;2023-04-22T08:23:18;19.20;73.30
5711;DHT22;61291;52.524;13.422;2023-04-22T08:25:44;19.10;73.20
5711;DHT22;61291;52.524;13.422;2023-04-22T08:28:09;19.10;73.30
5711;DHT22;61291;52.524;13.422;2023-04-22T08:30:35;19.20;73.20
5711;DHT22;61291;52.524;13.422;2023-04-22T08:33:01;19.20;73.10
5711;DHT22;61291;52.524;13.422;2023-04-22T08:35:27;19.30;73.40
5711;DHT22;61291;52.524;13.422;2023-04-22T08:37:52;19.30;73.40
5711;DHT22;61291;52.524;13.422;2023-04-22T08:40:18;19.30;72.90
5711;DHT22;61291;52.524;13.422;2023-04-22T08:42:43;19.40;73.10
5711;DHT22;61291;52.524;13.422;2023-04-22T08:45:09;19.40;73.40
5711;DHT22;61291;52.524;13.422;2023-04-22T08:47:36;19.40;73.50
5711;DHT22;61291;52.524;13.422;2023-04-22T08:50:03;19.50;73.60
5711;DHT22;61291;52.524;13.422;2023-04-22T08:52:29;19.50;73.30
5711;DHT22;61291;52.524;13.422;2023-04-22T08:54:55;19.60;73.60
5711;DHT22;61291;52.524;13.422;2023-04-22T08:57:21;19.60;73.80
5711;DHT22;61291;52.524;13.422;2023-04-22T08:59:48;19.60;73.50
5711;DHT22;61291;52.524;13.422;2023-04-22T09:02:19;19.70;73.50
5711;DHT22;61291;52.524;13.422;2023-04-22T09:04:50;19.70;73.60
5711;DHT22;61291;52.524;13.422;2023-04-22T09:07:27;19.80;73.60
5711;DHT22;61291;52.524;13.422;2023-04-22T09:09:55;19.80;73.60
5711;DHT22;61291;52.524;13.422;2023-04-22T09:12:21;19.80;73.60
5711;DHT22;61291;52.524;13.422;2023-04-22T09:14:47;19.90;73.70
5711;DHT22;61291;52.524;13.422;2023-04-22T09:17:16;19.90;73.70
5711;DHT22;61291;52.524;13.422;2023-04-22T09:19:43;19.90;72.70
5711;DHT22;61291;52.524;13.422;2023-04-22T09:22:10;20.00;73.60
5711;DHT22;61291;52.524;13.422;2023-04-22T09:24:42;20.00;73.30
5711;DHT22;61291;52.524;13.422;2023-04-22T09:27:08;20.00;73.20
5711;DHT22;61291;52.524;13.422;2023-04-22T09:29:35;20.00;73.20
5711;DHT22;61291;52.524;13.422;2023-04-22T09:32:08;20.10;73.50
5711;DHT22;61291;52.524;13.422;2023-04-22T09:34:34;20.30;73.40
5711;DHT22;61291;52.524;13.422;2023-04-22T09:37:11;20.30;73.20
5711;DHT22;61291;52.524;13.422;2023-04-22T09:39:36;20.30;73.00
5711;DHT22;61291;52.524;13.422;2023-04-22T09:42:02;20.30;72.90
5711;DHT22;61291;52.524;13.422;2023-04-22T09:44:27;20.40;72.90
5711;DHT22;61291;52.524;13.422;2023-04-22T09:46:53;20.40;72.70
5711;DHT22;61291;52.524;13.422;2023-04-22T09:49:20;20.40;72.80
5711;DHT22;61291;52.524;13.422;2023-04-22T09:51:45;20.50;72.40
5711;DHT22;61291;52.524;13.422;2023-04-22T09:54:11;20.50;72.60
5711;DHT22;61291;52.524;13.422;2023-04-22T09:56:41;20.50;72.50
5711;DHT22;61291;52.524;13.422;2023-04-22T09:59:07;20.60;73.10
5711;DHT22;61291;52.524;13.422;2023-04-22T10:01:39;20.70;73.10
5711;DHT22;61291;52.524;13.422;2023-04-22T10:04:09;20.70;72.90
5711;DHT22;61291;52.524;13.422;2023-04-22T10:06:36;20.70;72.80
5711;DHT22;61291;52.524;13.422;2023-04-22T10:09:02;20.70;73.30
5711;DHT22;61291;52.524;13.422;2023-04-22T10:11:29;20.80;72.40
5711;DHT22;61291;52.524;13.422;2023-04-22T10:13:56;20.80;72.20
5711;DHT22;61291;52.524;13.422;2023-04-22T10:16:23;20.80;71.90
5711;DHT22;61291;52.524;13.422;2023-04-22T10:18:49;20.80;72.10
5711;DHT22;61291;52.524;13.422;2023-04-22T10:21:17;20.80;72.20
5711;DHT22;61291;52.524;13.422;2023-04-22T10:23:47;20.90;72.10
5711;DHT22;61291;52.524;13.422;2023-04-22T10:26:39;21.00;72.10
5711;DHT22;61291;52.524;13.422;2023-04-22T10:29:06;21.10;72.00
5711;DHT22;61291;52.524;13.422;2023-04-22T10:31:35;21.00;71.50
5711;DHT22;61291;52.524;13.422;2023-04-22T10:34:08;21.00;71.20
5711;DHT22;61291;52.524;13.422;2023-04-22T10:36:54;21.10;71.40
5711;DHT22;61291;52.524;13.422;2023-04-22T10:39:21;21.20;70.70
5711;DHT22;61291;52.524;13.422;2023-04-22T10:44:54;21.20;69.20
5711;DHT22;61291;52.524;13.422;2023-04-22T10:49:50;21.20;70.00
5711;DHT22;61291;52.524;13.422;2023-04-22T10:52:28;21.20;70.10
5711;DHT22;61291;52.524;13.422;2023-04-22T10:54:55;21.30;68.00
5711;DHT22;61291;52.524;13.422;2023-04-22T10:57:21;21.30;68.80
5711;DHT22;61291;52.524;13.422;2023-04-22T10:59:54;21.30;68.80
5711;DHT22;61291;52.524;13.422;2023-04-22T11:02:22;21.50;69.00
5711;DHT22;61291;52.524;13.422;2023-04-22T11:04:48;21.40;68.70
5711;DHT22;61291;52.524;13.422;2023-04-22T11:07:29;21.50;68.50
5711;DHT22;61291;52.524;13.422;2023-04-22T11:10:00;21.50;68.20
5711;DHT22;61291;52.524;13.422;2023-04-22T11:15:30;21.60;68.40
5711;DHT22;61291;52.524;13.422;2023-04-22T11:17:56;21.50;67.30
5711;DHT22;61291;52.524;13.422;2023-04-22T11:20:21;21.60;68.20
5711;DHT22;61291;52.524;13.422;2023-04-22T11:22:52;21.60;68.20
5711;DHT22;61291;52.524;13.422;2023-04-22T11:25:17;21.70;68.10
5711;DHT22;61291;52.524;13.422;2023-04-22T11:27:43;21.70;68.10
5711;DHT22;61291;52.524;13.422;2023-04-22T11:30:14;21.70;67.80
5711;DHT22;61291;52.524;13.422;2023-04-22T11:32:48;21.80;67.60
5711;DHT22;61291;52.524;13.422;2023-04-22T11:35:18;21.80;66.30
5711;DHT22;61291;52.524;13.422;2023-04-22T11:37:46;21.80;64.80
5711;DHT22;61291;52.524;13.422;2023-04-22T11:42:51;21.80;65.50
5711;DHT22;61291;52.524;13.422;2023-04-22T11:45:17;21.80;65.70
5711;DHT22;61291;52.524;13.422;2023-04-22T11:47:43;21.90;65.80
5711;DHT22;61291;52.524;13.422;2023-04-22T11:50:12;21.80;65.60
5711;DHT22;61291;52.524;13.422;2023-04-22T11:52:55;21.80;66.40
5711;DHT22;61291;52.524;13.422;2023-04-22T11:55:26;21.90;65.20
5711;DHT22;61291;52.524;13.422;2023-04-22T12:00:30;21.80;65.60
5711;DHT22;61291;52.524;13.422;2023-04-22T12:03:02;22.00;66.10
5711;DHT22;61291;52.524;13.422;2023-04-22T12:05:38;22.00;66.00
5711;DHT22;61291;52.524;13.422;2023-04-22T12:08:12;22.00;65.80
5711;DHT22;61291;52.524;13.422;2023-04-22T12:10:39;22.00;66.00
5711;DHT22;61291;52.524;13.422;2023-04-22T12:13:06;22.00;66.50
5711;DHT22;61291;52.524;13.422;2023-04-22T12:15:42;22.00;66.40
5711;DHT22;61291;52.524;13.422;2023-04-22T12:18:08;22.10;65.60
5711;DHT22;61291;52.524;13.422;2023-04-22T12:20:43;22.20;65.30
5711;DHT22;61291;52.524;13.422;2023-04-22T12:23:13;22.10;64.50
5711;DHT22;61291;52.524;13.422;2023-04-22T12:25:40;22.10;63.80
5711;DHT22;61291;52.524;13.422;2023-04-22T12:28:06;22.10;64.40
5711;DHT22;61291;52.524;13.422;2023-04-22T12:30:31;22.10;65.00
5711;DHT22;61291;52.524;13.422;2023-04-22T12:32:57;22.10;65.70
5711;DHT22;61291;52.524;13.422;2023-04-22T12:35:22;22.20;65.10
5711;DHT22;61291;52.524;13.422;2023-04-22T12:37:54;22.20;64.60
5711;DHT22;61291;52.524;13.422;2023-04-22T12:40:22;22.20;64.80
5711;DHT22;61291;52.524;13.422;2023-04-22T12:42:48;22.20;64.60
5711;DHT22;61291;52.524;13.422;2023-04-22T12:45:14;22.20;64.00
5711;DHT22;61291;52.524;13.422;2023-04-22T12:47:40;22.30;63.80
5711;DHT22;61291;52.524;13.422;2023-04-22T12:50:06;22.30;63.80
5711;DHT22;61291;52.524;13.422;2023-04-22T12:52:33;22.30;63.80
5711;DHT22;61291;52.524;13.422;2023-04-22T12:54:59;22.30;63.30
5711;DHT22;61291;52.524;13.422;2023-04-22T12:57:25;22.30;63.30
5711;DHT22;61291;52.524;13.422;2023-04-22T12:59:50;22.30;63.60
5711;DHT22;61291;52.524;13.422;2023-04-22T13:02:16;22.30;63.30
5711;DHT22;61291;52.524;13.422;2023-04-22T13:04:41;22.30;63.10
5711;DHT22;61291;52.524;13.422;2023-04-22T13:07:07;22.30;63.00
5711;DHT22;61291;52.524;13.422;2023-04-22T13:09:32;22.30;62.70
5711;DHT22;61291;52.524;13.422;2023-04-22T13:11:58;22.30;62.50
5711;DHT22;61291;52.524;13.422;2023-04-22T13:14:24;22.30;61.80
5711;DHT22;61291;52.524;13.422;2023-04-22T13:16:50;22.30;61.80
5711;DHT22;61291;52.524;13.422;2023-04-22T13:19:16;22.30;61.30
5711;DHT22;61291;52.524;13.422;2023-04-22T13:21:41;22.30;60.90
5711;DHT22;61291;52.524;13.422;2023-04-22T13:24:07;22.40;61.40
5711;DHT22;61291;52.524;13.422;2023-04-22T13:26:33;22.30;60.10
5711;DHT22;61291;52.524;13.422;2023-04-22T13:29:00;22.30;60.00
5711;DHT22;61291;52.524;13.422;2023-04-22T13:31:25;22.30;60.70
5711;DHT22;61291;52.524;13.422;2023-04-22T13:33:51;22.30;61.20
5711;DHT22;61291;52.524;13.422;2023-04-22T13:36:16;22.30;61.40
5711;DHT22;61291;52.524;13.422;2023-04-22T13:38:42;22.30;61.90
5711;DHT22;61291;52.524;13.422;2023-04-22T13:41:07;22.30;62.20
5711;DHT22;61291;52.524;13.422;2023-04-22T13:43:32;22.30;62.60
5711;DHT22;61291;52.524;13.422;2023-04-22T13:45:58;22.40;62.80
5711;DHT22;61291;52.524;13.422;2023-04-22T13:48:23;22.40;62.90
5711;DHT22;61291;52.524;13.422;2023-04-22T13:50:49;22.40;63.00
5711;DHT22;61291;52.524;13.422;2023-04-22T13:53:15;22.40;63.10
5711;DHT22;61291;52.524;13.422;2023-04-22T13:55:40;22.40;63.10
5711;DHT22;61291;52.524;13.422;2023-04-22T13:58:07;22.40;63.00
5711;DHT22;61291;52.524;13.422;2023-04-22T14:00:33;22.40;63.10
5711;DHT22;61291;52.524;13.422;2023-04-22T14:02:59;22.40;62.70
5711;DHT22;61291;52.524;13.422;2023-04-22T14:05:25;22.40;63.10
5711;DHT22;61291;52.524;13.422;2023-04-22T14:07:51;22.30;62.20
5711;DHT22;61291;52.524;13.422;2023-04-22T14:10:17;22.30;61.80
5711;DHT22;61291;52.524;13.422;2023-04-22T14:12:45;22.30;62.30
5711;DHT22;61291;52.524;13.422;2023-04-22T14:15:11;22.30;62.90
5711;DHT22;61291;52.524;13.422;2023-04-22T14:17:37;22.40;62.80
5711;DHT22;61291;52.524;13.422;2023-04-22T14:20:03;22.40;62.80
5711;DHT22;61291;52.524;13.422;2023-04-22T14:22:29;22.40;62.80
5711;DHT22;61291;52.524;13.422;2023-04-22T14:24:55;22.40;62.60
5711;DHT22;61291;52.524;13.422;2023-04-22T14:27:20;22.40;62.30
5711;DHT22;61291;52.524;13.422;2023-04-22T14:29:46;22.40;62.30
5711;DHT22;61291;52.524;13.422;2023-04-22T14:32:11;22.30;62.00
5711;DHT22;61291;52.524;13.422;2023-04-22T14:34:37;22.40;61.90
5711;DHT22;61291;52.524;13.422;2023-04-22T14:37:03;22.40;62.20
5711;DHT22;61291;52.524;13.422;2023-04-22T14:39:29;22.40;61.90
5711;DHT22;61291;52.524;13.422;2023-04-22T14:41:54;22.40;61.90
5711;DHT22;61291;52.524;13.422;2023-04-22T14:44:21;22.40;61.80
5711;DHT22;61291;52.524;13.422;2023-04-22T14:46:46;22.50;62.00
5711;DHT22;61291;52.524;13.422;2023-04-22T14:49:12;22.50;61.60
5711;DHT22;61291;52.524;13.422;2023-04-22T14:51:37;22.50;61.70
5711;DHT22;61291;52.524;13.422;2023-04-22T14:54:03;22.60;62.00
5711;DHT22;61291;52.524;13.422;2023-04-22T14:56:29;22.60;61.90
5711;DHT22;61291;52.524;13.422;2023-04-22T14:58:54;22.60;62.00
5711;DHT22;61291;52.524;13.422;2023-04-22T15:01:20;22.60;62.00
5711;DHT22;61291;52.524;13.422;2023-04-22T15:03:47;22.60;62.00
5711;DHT22;61291;52.524;13.422;2023-04-22T15:06:13;22.60;62.00
5711;DHT22;61291;52.524;13.422;2023-04-22T15:08:38;22.60;61.90
5711;DHT22;61291;52.524;13.422;2023-04-22T15:11:04;22.60;61.70
5711;DHT22;61291;52.524;13.422;2023-04-22T15:13:30;22.60;61.80
5711;DHT22;61291;52.524;13.422;2023-04-22T15:15:56;22.60;61.80
5711;DHT22;61291;52.524;13.422;2023-04-22T15:18:21;22.60;61.70
5711;DHT22;61291;52.524;13.422;2023-04-22T15:20:47;22.50;61.60
5711;DHT22;61291;52.524;13.422;2023-04-22T15:23:13;22.50;61.40
5711;DHT22;61291;52.524;13.422;2023-04-22T15:25:38;22.50;61.50
5711;DHT22;61291;52.524;13.422;2023-04-22T15:28:04;22.50;61.50
5711;DHT22;61291;52.524;13.422;2023-04-22T15:30:29;22.50;61.60
5711;DHT22;61291;52.524;13.422;2023-04-22T15:32:55;22.40;61.50
5711;DHT22;61291;52.524;13.422;2023-04-22T15:35:22;22.30;61.30
5711;DHT22;61291;52.524;13.422;2023-04-22T15:37:47;22.30;61.40
5711;DHT22;61291;52.524;13.422;2023-04-22T15:40:13;22.20;61.20